Time;durP1;ratioP1;P1;durP2;ratioP2;P2;SDS_P1;SDS_P2;PMS_P1;PMS_P2;Temp;Humidity;BMP_temperature;BMP_pressure;BME280_temperature;BME280_humidity;BME280_pressure;Samples;Min_cycle;Max_cycle;Signal;HPM_P1;HPM_P2
2023/12/19 06:00:20;;;;;;;4.40;4.00;;;;;;;;;;1747510;28;20594;-78
2023/12/19 06:01:11;;;;;;;7.13;3.78;;;;;;;;;;1747555;28;20824;-79
2023/12/19 06:02:04;;;;;;;4.53;3.83;;;;;;;;;;1747434;28;20195;-78
2023/12/19 06:02:55;;;;;;;6.13;3.65;;;;;;;;;;1747431;28;20214;-79
2023/12/19 06:03:46;;;;;;;3.70;3.40;;;;;;;;;;1747296;28;20217;-79
2023/12/19 06:04:38;;;;;;;4.72;3.63;;;;;;;;;;1743830;28;20198;-78
2023/12/19 06:05:29;;;;;;;4.43;3.80;;;;;;;;;;1740778;28;20202;-78
2023/12/19 06:06:20;;;;;;;5.18;3.97;;;;;;;;;;1743803;28;20484;-77
2023/12/19 06:07:12;;;;;;;4.45;3.50;;;;;;;;;;1742711;28;20253;-79
2023/12/19 06:08:03;;;;;;;5.07;3.30;;;;;;;;;;1747115;28;20214;-79
2023/12/19 06:08:55;;;;;;;4.00;3.30;;;;;;;;;;1745175;28;20295;-78
2023/12/19 06:09:47;;;;;;;4.50;3.35;;;;;;;;;;1745934;28;20220;-79
2023/12/19 06:10:38;;;;;;;4.18;3.78;;;;;;;;;;1743245;28;20199;-78
2023/12/19 06:11:29;;;;;;;5.30;3.67;;;;;;;;;;1744750;28;20718;-78
2023/12/19 06:12:21;;;;;;;4.05;3.50;;;;;;;;;;1746832;28;20195;-79
2023/12/19 06:13:12;;;;;;;3.33;3.03;;;;;;;;;;1748744;28;20214;-79
2023/12/19 06:14:05;;;;;;;3.10;2.90;;;;;;;;;;1749110;28;20205;-80
2023/12/19 06:14:56;;;;;;;3.50;3.20;;;;;;;;;;1749428;28;20203;-78
2023/12/19 06:15:51;;;;;;;3.63;2.92;;;;;;;;;;1739630;28;20192;-77
2023/12/19 06:16:42;;;;;;;3.33;3.03;;;;;;;;;;1739220;28;20273;-79
2023/12/19 06:17:34;;;;;;;3.50;3.20;;;;;;;;;;1742143;28;20199;-77
2023/12/19 06:18:25;;;;;;;4.00;3.25;;;;;;;;;;1741835;28;20195;-77
2023/12/19 06:19:17;;;;;;;3.30;2.70;;;;;;;;;;1741521;28;20203;-77
2023/12/19 06:20:09;;;;;;;3.47;3.08;;;;;;;;;;1741811;28;20258;-77
2023/12/19 06:21:01;;;;;;;4.00;3.60;;;;;;;;;;1741496;28;20282;-77
2023/12/19 06:21:52;;;;;;;5.60;3.28;;;;;;;;;;1742025;28;20214;-78
2023/12/19 06:22:44;;;;;;;3.67;3.38;;;;;;;;;;1741878;28;20922;-77
2023/12/19 06:23:35;;;;;;;3.90;3.40;;;;;;;;;;1741964;28;20203;-77
2023/12/19 06:24:26;;;;;;;5.03;3.33;;;;;;;;;;1741740;28;20253;-76
2023/12/19 06:25:18;;;;;;;3.17;2.88;;;;;;;;;;1741578;28;20211;-76
2023/12/19 06:26:09;;;;;;;3.40;3.10;;;;;;;;;;1741503;28;20195;-76
2023/12/19 06:27:02;;;;;;;4.03;3.63;;;;;;;;;;1741570;28;20214;-76
2023/12/19 06:27:55;;;;;;;4.30;3.45;;;;;;;;;;1741862;28;20234;-77
2023/12/19 06:28:47;;;;;;;3.50;3.20;;;;;;;;;;1741768;28;20211;-77
2023/12/19 06:29:39;;;;;;;3.72;3.25;;;;;;;;;;1742468;28;20223;-77
2023/12/19 06:30:31;;;;;;;3.33;3.03;;;;;;;;;;1741614;28;20227;-77
2023/12/19 06:31:23;;;;;;;3.90;3.20;;;;;;;;;;1741492;28;20202;-77
2023/12/19 06:32:14;;;;;;;3.20;2.90;;;;;;;;;;1741791;28;20218;-77
2023/12/19 06:33:06;;;;;;;4.47;3.17;;;;;;;;;;1742100;28;20610;-77
2023/12/19 06:33:57;;;;;;;3.30;3.00;;;;;;;;;;1741887;28;20248;-77
2023/12/19 06:34:48;;;;;;;3.67;3.00;;;;;;;;;;1741789;28;20687;-76
2023/12/19 06:35:41;;;;;;;3.92;2.95;;;;;;;;;;1741972;28;20202;-77
2023/12/19 06:36:33;;;;;;;3.17;2.88;;;;;;;;;;1741618;28;20880;-75
2023/12/19 06:37:24;;;;;;;4.03;3.70;;;;;;;;;;1741289;28;20199;-77
2023/12/19 06:38:16;;;;;;;4.38;3.97;;;;;;;;;;1741460;28;20710;-76
2023/12/19 06:39:08;;;;;;;4.57;3.25;;;;;;;;;;1741510;28;20583;-76
2023/12/19 06:40:00;;;;;;;4.00;3.38;;;;;;;;;;1742221;28;20292;-77
2023/12/19 06:40:52;;;;;;;4.63;3.55;;;;;;;;;;1741712;28;20209;-77
2023/12/19 06:41:43;;;;;;;4.25;3.75;;;;;;;;;;1741231;28;20206;-76
2023/12/19 06:42:35;;;;;;;5.50;4.55;;;;;;;;;;1741448;28;20191;-76
2023/12/19 06:43:27;;;;;;;5.60;5.00;;;;;;;;;;1741396;28;20196;-76
2023/12/19 06:44:18;;;;;;;6.07;5.47;;;;;;;;;;1741573;28;20213;-77
2023/12/19 06:45:12;;;;;;;5.38;4.80;;;;;;;;;;1741735;28;20196;-77
2023/12/19 06:46:04;;;;;;;6.25;5.65;;;;;;;;;;1741699;28;20294;-76
2023/12/19 06:46:56;;;;;;;8.13;5.82;;;;;;;;;;1741572;28;20207;-77
2023/12/19 06:47:48;;;;;;;8.82;5.80;;;;;;;;;;1740468;28;20199;-77
2023/12/19 06:48:41;;;;;;;7.55;6.28;;;;;;;;;;1741313;28;20207;-77
2023/12/19 06:49:32;;;;;;;5.70;4.90;;;;;;;;;;1741166;28;20639;-77
2023/12/19 06:50:25;;;;;;;5.15;4.65;;;;;;;;;;1741621;28;20195;-76
2023/12/19 06:51:23;;;;;;;4.80;4.40;;;;;;;;;;1741689;28;20344;-75
2023/12/19 06:52:15;;;;;;;4.40;4.05;;;;;;;;;;1741273;28;20227;-77
2023/12/19 06:53:06;;;;;;;5.45;4.07;;;;;;;;;;1741502;28;20210;-76
2023/12/19 06:53:57;;;;;;;4.95;4.40;;;;;;;;;;1741433;28;20203;-76
2023/12/19 06:54:49;;;;;;;7.25;4.28;;;;;;;;;;1740679;28;20199;-77
2023/12/19 06:55:40;;;;;;;6.50;5.10;;;;;;;;;;1741200;28;20211;-77
2023/12/19 06:56:32;;;;;;;4.65;4.25;;;;;;;;;;1741524;28;20229;-77
2023/12/19 06:57:24;;;;;;;5.40;4.10;;;;;;;;;;1740926;28;20207;-77
2023/12/19 06:58:16;;;;;;;5.30;4.80;;;;;;;;;;1741724;28;20623;-76
2023/12/19 06:59:08;;;;;;;4.80;4.25;;;;;;;;;;1741519;28;20203;-77
2023/12/19 06:59:59;;;;;;;4.47;4.07;;;;;;;;;;1742673;28;20695;-77
2023/12/19 07:00:51;;;;;;;4.43;4.03;;;;;;;;;;1742945;28;20195;-77
2023/12/19 07:01:44;;;;;;;4.20;3.78;;;;;;;;;;1741698;28;20203;-77
2023/12/19 07:02:37;;;;;;;4.32;3.88;;;;;;;;;;1741499;28;20207;-76
2023/12/19 07:03:28;;;;;;;4.88;4.05;;;;;;;;;;1741716;28;20211;-77
2023/12/19 07:04:20;;;;;;;4.13;3.75;;;;;;;;;;1741600;28;20222;-77
2023/12/19 07:05:11;;;;;;;4.00;3.60;;;;;;;;;;1741531;28;20226;-77
2023/12/19 07:06:03;;;;;;;5.40;3.63;;;;;;;;;;1741638;28;20241;-76
2023/12/19 07:06:54;;;;;;;4.35;3.78;;;;;;;;;;1741698;28;20260;-76
2023/12/19 07:07:51;;;;;;;4.18;3.65;;;;;;;;;;1740854;28;20598;-77
2023/12/19 07:08:43;;;;;;;4.50;3.97;;;;;;;;;;1741648;28;20199;-77
2023/12/19 07:09:34;;;;;;;3.88;3.50;;;;;;;;;;1741447;28;20230;-77
2023/12/19 07:10:27;;;;;;;4.20;3.80;;;;;;;;;;1741368;28;20226;-77
2023/12/19 07:11:18;;;;;;;4.72;3.90;;;;;;;;;;1741495;28;20203;-77
2023/12/19 07:12:10;;;;;;;4.50;4.10;;;;;;;;;;1741135;28;20191;-76
2023/12/19 07:13:02;;;;;;;5.22;4.50;;;;;;;;;;1743448;28;20206;-79
2023/12/19 07:13:53;;;;;;;6.43;3.75;;;;;;;;;;1742003;28;20202;-77
2023/12/19 07:14:44;;;;;;;5.28;4.25;;;;;;;;;;1741440;28;20282;-77
2023/12/19 07:15:36;;;;;;;4.80;4.40;;;;;;;;;;1741054;28;20254;-76
2023/12/19 07:16:27;;;;;;;4.82;4.43;;;;;;;;;;1741276;28;20290;-77
2023/12/19 07:17:19;;;;;;;4.85;4.35;;;;;;;;;;1741232;28;20207;-77
2023/12/19 07:18:12;;;;;;;4.90;4.50;;;;;;;;;;1742476;28;20219;-79
2023/12/19 07:19:04;;;;;;;4.53;4.13;;;;;;;;;;1745727;28;20222;-80
2023/12/19 07:19:55;;;;;;;5.68;5.13;;;;;;;;;;1745047;28;20215;-80
2023/12/19 07:20:47;;;;;;;6.82;6.03;;;;;;;;;;1745687;28;20231;-80
2023/12/19 07:21:39;;;;;;;5.55;5.05;;;;;;;;;;1745616;28;20213;-78
2023/12/19 07:22:31;;;;;;;5.78;5.28;;;;;;;;;;1745485;28;20198;-79
2023/12/19 07:23:22;;;;;;;7.72;5.88;;;;;;;;;;1745404;28;20207;-77
2023/12/19 07:24:14;;;;;;;7.20;5.57;;;;;;;;;;1745823;28;20238;-78
2023/12/19 07:25:05;;;;;;;5.50;4.72;;;;;;;;;;1745375;28;20210;-79
2023/12/19 07:25:56;;;;;;;5.22;4.35;;;;;;;;;;1746151;28;20659;-79
2023/12/19 07:26:49;;;;;;;5.47;4.40;;;;;;;;;;1746650;28;20221;-79
2023/12/19 07:27:40;;;;;;;4.72;4.32;;;;;;;;;;1745615;28;20203;-78
2023/12/19 07:28:31;;;;;;;5.75;5.10;;;;;;;;;;1745713;28;20246;-78
2023/12/19 07:29:23;;;;;;;6.10;5.50;;;;;;;;;;1743096;28;20257;-78
2023/12/19 07:30:14;;;;;;;5.15;4.65;;;;;;;;;;1745024;28;20206;-78
2023/12/19 07:31:05;;;;;;;6.45;5.68;;;;;;;;;;1743784;28;20281;-78
2023/12/19 07:31:58;;;;;;;5.82;5.32;;;;;;;;;;1743589;28;20241;-78
2023/12/19 07:32:50;;;;;;;6.20;5.60;;;;;;;;;;1744158;28;20207;-79
2023/12/19 07:33:42;;;;;;;6.45;5.85;;;;;;;;;;1744310;28;20207;-78
2023/12/19 07:34:34;;;;;;;6.80;5.80;;;;;;;;;;1744876;28;20199;-77
2023/12/19 07:35:26;;;;;;;6.80;6.05;;;;;;;;;;1744452;28;20211;-75
2023/12/19 07:36:17;;;;;;;8.73;7.40;;;;;;;;;;1741241;28;20651;-77
2023/12/19 07:37:09;;;;;;;7.43;6.38;;;;;;;;;;1741153;28;20199;-76
2023/12/19 07:38:00;;;;;;;11.15;7.50;;;;;;;;;;1741705;28;20199;-76
2023/12/19 07:38:52;;;;;;;10.35;8.43;;;;;;;;;;1741043;28;20230;-76
2023/12/19 07:39:46;;;;;;;11.55;9.20;;;;;;;;;;1740769;28;20219;-76
2023/12/19 07:40:37;;;;;;;10.75;8.00;;;;;;;;;;1741115;28;20309;-75
2023/12/19 07:41:28;;;;;;;11.23;8.35;;;;;;;;;;1741162;28;20683;-76
2023/12/19 07:42:22;;;;;;;10.32;8.13;;;;;;;;;;1741136;28;20286;-76
2023/12/19 07:43:13;;;;;;;12.07;8.57;;;;;;;;;;1741080;28;20214;-76
2023/12/19 07:44:09;;;;;;;10.40;8.52;;;;;;;;;;1740349;28;20221;-76
2023/12/19 07:45:02;;;;;;;12.27;9.30;;;;;;;;;;1740341;28;20195;-76
2023/12/19 07:45:53;;;;;;;11.77;9.02;;;;;;;;;;1740823;28;20203;-76
2023/12/19 07:46:45;;;;;;;14.02;9.82;;;;;;;;;;1742109;28;20632;-78
2023/12/19 07:47:37;;;;;;;17.27;11.32;;;;;;;;;;1746780;28;20199;-78
2023/12/19 07:48:28;;;;;;;20.77;13.57;;;;;;;;;;1746708;28;20214;-78
2023/12/19 07:49:21;;;;;;;12.82;8.20;;;;;;;;;;1747339;28;20205;-78
2023/12/19 07:50:12;;;;;;;17.63;9.63;;;;;;;;;;1747452;28;20229;-79
2023/12/19 07:51:04;;;;;;;14.52;10.35;;;;;;;;;;1740106;28;20544;-79
2023/12/19 07:51:56;;;;;;;16.88;11.80;;;;;;;;;;1742881;28;20199;-77
2023/12/19 07:52:47;;;;;;;20.45;11.48;;;;;;;;;;1742896;28;20203;-78
2023/12/19 07:53:38;;;;;;;12.00;8.85;;;;;;;;;;1745155;28;20203;-77
2023/12/19 07:54:30;;;;;;;15.27;9.32;;;;;;;;;;1746079;28;20265;-78
2023/12/19 07:55:21;;;;;;;13.25;10.23;;;;;;;;;;1746785;28;20210;-78
2023/12/19 07:56:13;;;;;;;12.05;9.60;;;;;;;;;;1745569;28;20544;-78
2023/12/19 07:57:05;;;;;;;12.15;8.63;;;;;;;;;;1746295;28;20254;-78
2023/12/19 07:57:56;;;;;;;10.45;8.13;;;;;;;;;;1743854;28;20235;-77
2023/12/19 07:58:47;;;;;;;9.63;7.57;;;;;;;;;;1744812;28;20710;-78
2023/12/19 07:59:39;;;;;;;8.63;7.75;;;;;;;;;;1747359;28;20230;-76
2023/12/19 08:00:30;;;;;;;14.23;11.23;;;;;;;;;;1745425;28;20257;-78
2023/12/19 08:01:21;;;;;;;16.80;13.05;;;;;;;;;;1745976;28;20229;-79
2023/12/19 08:02:14;;;;;;;13.05;10.70;;;;;;;;;;1746987;28;20237;-77
2023/12/19 08:03:05;;;;;;;12.45;10.13;;;;;;;;;;1747435;28;20199;-78
2023/12/19 08:03:58;;;;;;;10.70;7.88;;;;;;;;;;1747116;28;20223;-78
2023/12/19 08:04:50;;;;;;;8.40;7.60;;;;;;;;;;1747838;28;20274;-77
2023/12/19 08:05:45;;;;;;;9.23;7.93;;;;;;;;;;1747199;28;20200;-79
2023/12/19 08:06:40;;;;;;;8.95;7.35;;;;;;;;;;1746476;28;20225;-78
2023/12/19 08:07:31;;;;;;;9.93;8.32;;;;;;;;;;1746216;28;20191;-78
2023/12/19 08:08:22;;;;;;;8.32;7.53;;;;;;;;;;1746499;28;20233;-78
2023/12/19 08:09:15;;;;;;;8.70;7.80;;;;;;;;;;1746060;28;20206;-78
2023/12/19 08:10:07;;;;;;;9.32;8.45;;;;;;;;;;1745814;28;20205;-78
2023/12/19 08:10:58;;;;;;;9.00;8.10;;;;;;;;;;1747465;28;20198;-77
2023/12/19 08:11:50;;;;;;;9.75;8.68;;;;;;;;;;1746016;28;20199;-78
2023/12/19 08:12:41;;;;;;;9.75;8.82;;;;;;;;;;1746866;28;20202;-79
2023/12/19 08:13:34;;;;;;;9.70;8.70;;;;;;;;;;1744700;28;20613;-78
2023/12/19 08:14:27;;;;;;;9.85;8.85;;;;;;;;;;1747026;28;20209;-79
2023/12/19 08:15:18;;;;;;;9.18;8.32;;;;;;;;;;1745620;28;20546;-78
2023/12/19 08:16:09;;;;;;;9.82;8.75;;;;;;;;;;1747200;28;20214;-78
2023/12/19 08:17:01;;;;;;;9.90;8.90;;;;;;;;;;1746153;28;20191;-78
2023/12/19 08:17:52;;;;;;;10.95;9.13;;;;;;;;;;1746339;28;20234;-78
2023/12/19 08:18:43;;;;;;;10.70;9.48;;;;;;;;;;1745162;28;20199;-79
2023/12/19 08:19:35;;;;;;;10.45;8.60;;;;;;;;;;1745402;28;20251;-79
2023/12/19 08:20:28;;;;;;;9.48;8.50;;;;;;;;;;1746364;28;20231;-78
2023/12/19 08:21:20;;;;;;;10.63;8.85;;;;;;;;;;1746962;28;20207;-79
2023/12/19 08:22:11;;;;;;;9.30;8.40;;;;;;;;;;1747122;28;20286;-77
2023/12/19 08:23:02;;;;;;;10.27;9.18;;;;;;;;;;1746447;28;20229;-78
2023/12/19 08:23:54;;;;;;;14.55;9.43;;;;;;;;;;1746721;28;20206;-78
2023/12/19 08:24:45;;;;;;;10.10;9.10;;;;;;;;;;1746685;28;20199;-79
2023/12/19 08:25:41;;;;;;;9.30;8.38;;;;;;;;;;1745703;28;20273;-78
2023/12/19 08:26:32;;;;;;;11.75;9.40;;;;;;;;;;1746001;28;20203;-78
2023/12/19 08:27:26;;;;;;;9.88;8.88;;;;;;;;;;1745436;28;20195;-78
2023/12/19 08:28:18;;;;;;;12.73;9.40;;;;;;;;;;1745647;28;20607;-79
2023/12/19 08:29:09;;;;;;;10.35;8.90;;;;;;;;;;1739152;28;20572;-79
2023/12/19 08:30:00;;;;;;;10.20;9.20;;;;;;;;;;1742636;28;20207;-78
2023/12/19 08:30:52;;;;;;;11.77;9.77;;;;;;;;;;1746503;28;20191;-79
2023/12/19 08:31:45;;;;;;;10.82;9.75;;;;;;;;;;1746620;28;20207;-79
2023/12/19 08:32:36;;;;;;;10.77;8.70;;;;;;;;;;1744510;28;20210;-78
2023/12/19 08:33:28;;;;;;;11.93;9.55;;;;;;;;;;1746212;28;20201;-79
2023/12/19 08:34:19;;;;;;;10.55;9.30;;;;;;;;;;1745936;28;20214;-78
2023/12/19 08:35:10;;;;;;;11.77;9.10;;;;;;;;;;1746825;28;20199;-79
2023/12/19 08:36:03;;;;;;;14.30;10.15;;;;;;;;;;1746244;28;20217;-78
2023/12/19 08:36:54;;;;;;;11.10;9.02;;;;;;;;;;1747106;28;20218;-79
2023/12/19 08:37:46;;;;;;;10.63;9.35;;;;;;;;;;1746782;28;20199;-78
2023/12/19 08:38:38;;;;;;;10.32;9.23;;;;;;;;;;1746079;28;20199;-79
2023/12/19 08:39:29;;;;;;;11.93;9.73;;;;;;;;;;1745362;28;20217;-78
2023/12/19 08:40:21;;;;;;;10.63;9.52;;;;;;;;;;1743187;28;20605;-78
2023/12/19 08:41:12;;;;;;;11.50;10.05;;;;;;;;;;1744715;28;20191;-79
2023/12/19 08:42:03;;;;;;;10.50;9.40;;;;;;;;;;1745301;28;20191;-78
2023/12/19 08:42:55;;;;;;;10.75;9.65;;;;;;;;;;1743028;28;20203;-77
2023/12/19 08:43:46;;;;;;;11.27;9.73;;;;;;;;;;1745091;28;20191;-78
2023/12/19 08:44:40;;;;;;;10.02;9.02;;;;;;;;;;1743144;28;20203;-78
2023/12/19 08:45:31;;;;;;;10.40;9.40;;;;;;;;;;1743282;28;20207;-78
2023/12/19 08:46:24;;;;;;;11.57;10.38;;;;;;;;;;1742842;28;20263;-79
2023/12/19 08:47:15;;;;;;;10.25;9.15;;;;;;;;;;1743148;28;20806;-78
2023/12/19 08:48:06;;;;;;;12.40;10.57;;;;;;;;;;1742974;28;20207;-79
2023/12/19 08:48:58;;;;;;;11.30;9.48;;;;;;;;;;1742906;28;20191;-78
2023/12/19 08:49:52;;;;;;;12.10;10.13;;;;;;;;;;1743193;28;20242;-78
2023/12/19 08:50:45;;;;;;;11.40;9.32;;;;;;;;;;1744164;28;20202;-78
2023/12/19 08:51:37;;;;;;;10.50;8.85;;;;;;;;;;1743368;28;20624;-78
2023/12/19 08:52:28;;;;;;;11.20;9.75;;;;;;;;;;1743788;28;20199;-79
2023/12/19 08:53:21;;;;;;;11.77;10.57;;;;;;;;;;1743398;28;20233;-78
2023/12/19 08:54:12;;;;;;;9.15;8.20;;;;;;;;;;1743709;28;20207;-79
2023/12/19 08:55:04;;;;;;;9.65;8.65;;;;;;;;;;1743767;28;20290;-78
2023/12/19 08:55:57;;;;;;;10.48;9.38;;;;;;;;;;1744688;28;20222;-78
2023/12/19 08:56:48;;;;;;;15.75;9.88;;;;;;;;;;1745960;28;20195;-79
2023/12/19 08:57:40;;;;;;;12.18;10.13;;;;;;;;;;1744413;28;20207;-79
2023/12/19 08:58:32;;;;;;;10.70;9.70;;;;;;;;;;1745008;28;20234;-77
2023/12/19 08:59:23;;;;;;;11.57;8.70;;;;;;;;;;1744216;28;20667;-78
2023/12/19 09:00:16;;;;;;;14.10;8.90;;;;;;;;;;1743290;28;20191;-78
2023/12/19 09:01:09;;;;;;;8.55;7.63;;;;;;;;;;1743751;28;20658;-78
2023/12/19 09:02:00;;;;;;;10.00;8.32;;;;;;;;;;1744814;28;20199;-79
2023/12/19 09:02:51;;;;;;;13.10;7.65;;;;;;;;;;1743523;28;20580;-78
2023/12/19 09:03:43;;;;;;;8.70;7.80;;;;;;;;;;1743582;28;20207;-79
2023/12/19 09:04:35;;;;;;;10.98;8.45;;;;;;;;;;1743918;28;20203;-79
2023/12/19 09:05:26;;;;;;;9.35;8.32;;;;;;;;;;1743438;28;20618;-79
2023/12/19 09:06:18;;;;;;;12.85;7.95;;;;;;;;;;1742976;28;20226;-79
2023/12/19 09:07:11;;;;;;;9.45;8.45;;;;;;;;;;1743173;28;20218;-78
2023/12/19 09:08:02;;;;;;;10.80;8.70;;;;;;;;;;1744165;28;20199;-79
2023/12/19 09:08:54;;;;;;;9.38;8.20;;;;;;;;;;1743241;28;20208;-78
2023/12/19 09:09:45;;;;;;;9.80;8.77;;;;;;;;;;1743151;28;20233;-77
2023/12/19 09:10:36;;;;;;;10.30;9.15;;;;;;;;;;1742824;28;20571;-79
2023/12/19 09:11:28;;;;;;;9.52;8.52;;;;;;;;;;1742563;28;20290;-78
2023/12/19 09:12:20;;;;;;;13.02;8.98;;;;;;;;;;1744196;28;20564;-78
2023/12/19 09:13:11;;;;;;;12.50;10.55;;;;;;;;;;1742816;28;20223;-78
2023/12/19 09:14:03;;;;;;;12.90;10.50;;;;;;;;;;1743989;28;20191;-79
2023/12/19 09:14:54;;;;;;;10.48;9.18;;;;;;;;;;1742424;28;20195;-78
2023/12/19 09:15:46;;;;;;;11.18;9.35;;;;;;;;;;1742484;28;20230;-79
2023/12/19 09:16:38;;;;;;;10.63;9.52;;;;;;;;;;1742485;28;20219;-79
2023/12/19 09:17:30;;;;;;;9.88;8.98;;;;;;;;;;1742734;28;20584;-79
2023/12/19 09:18:24;;;;;;;10.32;9.23;;;;;;;;;;1745280;28;20233;-77
2023/12/19 09:19:15;;;;;;;10.95;9.88;;;;;;;;;;1745125;28;20192;-78
2023/12/19 09:20:08;;;;;;;9.63;8.65;;;;;;;;;;1744328;28;20199;-78
2023/12/19 09:21:00;;;;;;;11.70;8.90;;;;;;;;;;1737364;28;20326;-78
2023/12/19 09:21:52;;;;;;;12.15;9.65;;;;;;;;;;1739089;28;20253;-79
2023/12/19 09:22:45;;;;;;;11.10;9.52;;;;;;;;;;1743625;28;20202;-78
2023/12/19 09:23:37;;;;;;;10.70;9.20;;;;;;;;;;1742200;28;20203;-78
2023/12/19 09:24:30;;;;;;;11.25;9.70;;;;;;;;;;1742327;28;20580;-77
2023/12/19 09:25:22;;;;;;;11.50;10.40;;;;;;;;;;1742225;28;20205;-78
2023/12/19 09:26:14;;;;;;;13.00;9.82;;;;;;;;;;1741837;28;20664;-77
2023/12/19 09:27:05;;;;;;;15.20;9.32;;;;;;;;;;1742265;28;20199;-78
2023/12/19 09:27:57;;;;;;;16.63;10.55;;;;;;;;;;1741813;28;20321;-78
2023/12/19 09:28:48;;;;;;;12.25;10.63;;;;;;;;;;1742322;28;20222;-78
2023/12/19 09:29:40;;;;;;;11.07;10.02;;;;;;;;;;1742029;28;20227;-77
2023/12/19 09:30:32;;;;;;;11.38;10.23;;;;;;;;;;1742393;28;20210;-77
2023/12/19 09:31:23;;;;;;;11.05;9.90;;;;;;;;;;1742310;28;20614;-77
2023/12/19 09:32:16;;;;;;;11.60;10.50;;;;;;;;;;1744001;28;20218;-78
2023/12/19 09:33:08;;;;;;;10.85;9.77;;;;;;;;;;1743912;28;20202;-79
2023/12/19 09:33:59;;;;;;;12.07;10.95;;;;;;;;;;1743705;28;20199;-78
2023/12/19 09:34:50;;;;;;;11.45;10.40;;;;;;;;;;1743968;28;20211;-78
2023/12/19 09:35:42;;;;;;;13.13;10.80;;;;;;;;;;1743662;28;20230;-78
2023/12/19 09:36:34;;;;;;;13.10;10.77;;;;;;;;;;1744006;28;20728;-78
2023/12/19 09:37:26;;;;;;;12.30;11.10;;;;;;;;;;1744921;28;20651;-78
2023/12/19 09:38:19;;;;;;;13.20;11.80;;;;;;;;;;1744207;28;20239;-78
2023/12/19 09:39:11;;;;;;;13.40;11.90;;;;;;;;;;1744124;28;20222;-78
2023/12/19 09:40:03;;;;;;;13.15;11.75;;;;;;;;;;1743214;28;20678;-78
2023/12/19 09:40:55;;;;;;;12.98;11.30;;;;;;;;;;1743228;28;20222;-78
2023/12/19 09:41:47;;;;;;;11.85;10.55;;;;;;;;;;1743703;28;20203;-78
2023/12/19 09:42:39;;;;;;;12.20;11.00;;;;;;;;;;1743756;28;20234;-78
2023/12/19 09:43:33;;;;;;;15.27;10.63;;;;;;;;;;1743105;28;20221;-77
2023/12/19 09:44:24;;;;;;;14.23;12.50;;;;;;;;;;1742996;28;20206;-78
2023/12/19 09:45:16;;;;;;;13.57;12.18;;;;;;;;;;1742847;28;20225;-78
2023/12/19 09:46:07;;;;;;;12.30;11.10;;;;;;;;;;1743456;28;20211;-78
2023/12/19 09:46:59;;;;;;;14.32;11.68;;;;;;;;;;1742866;28;20574;-78
2023/12/19 09:47:58;;;;;;;12.95;10.95;;;;;;;;;;1743025;28;20207;-78
2023/12/19 09:48:49;;;;;;;13.90;11.77;;;;;;;;;;1742979;28;20214;-77
2023/12/19 09:49:43;;;;;;;15.27;12.60;;;;;;;;;;1742960;28;20219;-78
2023/12/19 09:50:37;;;;;;;13.35;11.93;;;;;;;;;;1743228;28;20218;-77
2023/12/19 09:51:32;;;;;;;13.55;12.25;;;;;;;;;;1742449;28;20242;-78
2023/12/19 09:52:24;;;;;;;13.75;12.35;;;;;;;;;;1742922;28;20241;-78
2023/12/19 09:53:18;;;;;;;12.63;11.30;;;;;;;;;;1742628;28;20192;-77
2023/12/19 09:54:10;;;;;;;12.50;11.30;;;;;;;;;;1743286;28;20214;-78
2023/12/19 09:55:04;;;;;;;13.57;12.18;;;;;;;;;;1743570;28;20671;-77
2023/12/19 09:55:55;;;;;;;12.90;11.50;;;;;;;;;;1742851;28;20285;-78
2023/12/19 09:56:46;;;;;;;16.13;12.27;;;;;;;;;;1743375;28;20579;-78
2023/12/19 09:57:38;;;;;;;13.00;11.73;;;;;;;;;;1742412;28;20282;-78
2023/12/19 09:58:29;;;;;;;15.25;13.25;;;;;;;;;;1743204;28;20226;-78
2023/12/19 09:59:21;;;;;;;13.13;11.85;;;;;;;;;;1743175;28;20568;-78
2023/12/19 10:00:13;;;;;;;15.73;13.63;;;;;;;;;;1743119;28;20210;-78
2023/12/19 10:01:05;;;;;;;14.07;12.68;;;;;;;;;;1742943;28;20233;-78
2023/12/19 10:01:56;;;;;;;13.27;11.70;;;;;;;;;;1744780;28;20191;-77
2023/12/19 10:02:48;;;;;;;14.25;12.50;;;;;;;;;;1743251;28;20302;-77
2023/12/19 10:03:41;;;;;;;13.68;12.07;;;;;;;;;;1745271;28;20218;-77
2023/12/19 10:04:32;;;;;;;14.82;13.32;;;;;;;;;;1743553;28;20205;-78
2023/12/19 10:05:24;;;;;;;14.20;12.70;;;;;;;;;;1742927;28;20314;-77
2023/12/19 10:06:17;;;;;;;15.35;13.50;;;;;;;;;;1743214;28;20207;-78
2023/12/19 10:07:08;;;;;;;16.10;13.65;;;;;;;;;;1742876;28;20221;-77
2023/12/19 10:08:00;;;;;;;16.10;14.32;;;;;;;;;;1744441;28;20199;-78
2023/12/19 10:08:52;;;;;;;16.83;13.68;;;;;;;;;;1742885;28;20214;-78
2023/12/19 10:09:55;;;;;;;14.20;12.80;;;;;;;;;;1743069;28;20227;-78
2023/12/19 10:10:50;;;;;;;14.85;13.35;;;;;;;;;;1743387;28;20620;-79
2023/12/19 10:11:41;;;;;;;14.30;12.80;;;;;;;;;;1742759;28;20210;-78
2023/12/19 10:12:33;;;;;;;15.15;12.00;;;;;;;;;;1743747;28;20198;-77
2023/12/19 10:13:27;;;;;;;15.38;13.65;;;;;;;;;;1742870;28;20203;-78
2023/12/19 10:14:21;;;;;;;14.27;12.77;;;;;;;;;;1742709;28;20210;-78
2023/12/19 10:15:15;;;;;;;17.50;13.98;;;;;;;;;;1744273;28;20188;-78
2023/12/19 10:16:08;;;;;;;15.00;13.00;;;;;;;;;;1742787;28;20191;-77
2023/12/19 10:17:00;;;;;;;22.10;13.50;;;;;;;;;;1742946;28;20203;-78
2023/12/19 10:18:05;;;;;;;16.90;13.02;;;;;;;;;;1743316;28;20203;-79
2023/12/19 10:18:57;;;;;;;17.33;13.00;;;;;;;;;;1744101;28;20660;-78
2023/12/19 10:19:48;;;;;;;14.82;13.30;;;;;;;;;;1743483;28;20242;-78
2023/12/19 10:20:40;;;;;;;15.35;12.60;;;;;;;;;;1743445;28;20199;-78
2023/12/19 10:21:32;;;;;;;20.33;12.45;;;;;;;;;;1743718;28;20251;-78
2023/12/19 10:22:24;;;;;;;16.70;13.50;;;;;;;;;;1743710;28;20207;-78
2023/12/19 10:23:20;;;;;;;16.15;13.63;;;;;;;;;;1743708;28;20213;-78
2023/12/19 10:24:13;;;;;;;15.00;12.35;;;;;;;;;;1743845;28;20200;-79
2023/12/19 10:25:07;;;;;;;19.50;13.07;;;;;;;;;;1745145;28;20210;-77
2023/12/19 10:25:58;;;;;;;14.38;12.25;;;;;;;;;;1743654;28;20217;-78
2023/12/19 10:26:59;;;;;;;17.40;13.82;;;;;;;;;;1743891;28;20195;-78
2023/12/19 10:28:04;;;;;;;13.80;12.27;;;;;;;;;;1743546;28;20280;-78
2023/12/19 10:28:57;;;;;;;13.50;12.18;;;;;;;;;;1743680;28;20199;-78
2023/12/19 10:29:48;;;;;;;15.20;12.90;;;;;;;;;;1743418;28;20280;-78
2023/12/19 10:30:39;;;;;;;16.33;13.00;;;;;;;;;;1743850;28;20203;-78
2023/12/19 10:31:31;;;;;;;14.70;13.20;;;;;;;;;;1743988;28;20642;-78
2023/12/19 10:32:23;;;;;;;13.38;12.07;;;;;;;;;;1742983;28;20254;-78
2023/12/19 10:33:14;;;;;;;15.38;11.95;;;;;;;;;;1743012;28;20241;-79
2023/12/19 10:34:07;;;;;;;13.63;12.38;;;;;;;;;;1743368;28;20199;-79
2023/12/19 10:34:58;;;;;;;13.82;12.40;;;;;;;;;;1743055;28;20225;-78
2023/12/19 10:35:49;;;;;;;13.95;12.20;;;;;;;;;;1743270;28;20274;-79
2023/12/19 10:36:41;;;;;;;15.13;12.95;;;;;;;;;;1743395;28;20206;-78
2023/12/19 10:37:35;;;;;;;13.93;12.43;;;;;;;;;;1742887;28;20616;-78
2023/12/19 10:38:26;;;;;;;13.05;11.65;;;;;;;;;;1743177;28;20210;-78
2023/12/19 10:39:19;;;;;;;14.65;13.18;;;;;;;;;;1745185;28;20230;-78
2023/12/19 10:40:14;;;;;;;14.32;12.93;;;;;;;;;;1739740;28;20211;-78
2023/12/19 10:41:06;;;;;;;16.00;13.30;;;;;;;;;;1742866;28;20250;-78
2023/12/19 10:42:05;;;;;;;14.02;12.52;;;;;;;;;;1742464;28;20663;-78
2023/12/19 10:42:56;;;;;;;14.00;12.25;;;;;;;;;;1743322;28;20222;-78
2023/12/19 10:43:49;;;;;;;14.23;12.82;;;;;;;;;;1743299;28;20195;-79
2023/12/19 10:44:41;;;;;;;15.77;13.20;;;;;;;;;;1743150;28;20191;-78
2023/12/19 10:45:33;;;;;;;14.27;12.75;;;;;;;;;;1743498;28;20210;-78
2023/12/19 10:46:24;;;;;;;15.45;13.85;;;;;;;;;;1743164;28;20206;-78
2023/12/19 10:47:17;;;;;;;16.52;14.20;;;;;;;;;;1744660;28;20199;-78
2023/12/19 10:48:08;;;;;;;15.18;13.68;;;;;;;;;;1743065;28;20211;-79
2023/12/19 10:49:01;;;;;;;15.48;13.88;;;;;;;;;;1743743;28;20194;-78
2023/12/19 10:49:52;;;;;;;21.05;14.20;;;;;;;;;;1743460;28;20235;-79
2023/12/19 10:50:44;;;;;;;26.38;21.67;;;;;;;;;;1743501;28;20195;-79
2023/12/19 10:51:36;;;;;;;28.83;22.48;;;;;;;;;;1746255;28;20195;-79
2023/12/19 10:52:29;;;;;;;17.15;15.45;;;;;;;;;;1743825;28;20290;-78
2023/12/19 10:53:20;;;;;;;16.08;14.48;;;;;;;;;;1743036;28;20622;-78
2023/12/19 10:54:12;;;;;;;17.20;14.63;;;;;;;;;;1743493;28;20203;-78
2023/12/19 10:55:05;;;;;;;16.92;13.70;;;;;;;;;;1743290;28;20675;-78
2023/12/19 10:56:00;;;;;;;16.42;14.82;;;;;;;;;;1742877;28;20214;-78
2023/12/19 10:57:02;;;;;;;16.23;14.48;;;;;;;;;;1743278;28;20233;-78
2023/12/19 10:57:55;;;;;;;16.33;14.63;;;;;;;;;;1736113;28;20226;-79
2023/12/19 10:58:49;;;;;;;19.27;14.98;;;;;;;;;;1736315;28;20234;-79
2023/12/19 10:59:45;;;;;;;16.75;14.02;;;;;;;;;;1743074;28;20287;-78
2023/12/19 11:00:39;;;;;;;16.55;14.73;;;;;;;;;;1742825;28;20203;-79
2023/12/19 11:01:32;;;;;;;17.10;15.30;;;;;;;;;;1743111;28;20630;-79
2023/12/19 11:02:30;;;;;;;18.45;15.40;;;;;;;;;;1744212;28;20679;-79
2023/12/19 11:03:23;;;;;;;19.27;16.92;;;;;;;;;;1744954;28;20207;-79
2023/12/19 11:04:16;;;;;;;18.58;16.13;;;;;;;;;;1744946;28;20257;-79
2023/12/19 11:05:11;;;;;;;17.95;16.02;;;;;;;;;;1744011;28;20598;-78
2023/12/19 11:06:06;;;;;;;21.58;16.75;;;;;;;;;;1746881;28;20203;-77
2023/12/19 11:06:59;;;;;;;16.83;15.10;;;;;;;;;;1742703;28;20234;-78
2023/12/19 11:07:53;;;;;;;17.67;15.88;;;;;;;;;;1743124;28;20255;-78
2023/12/19 11:08:48;;;;;;;17.60;15.80;;;;;;;;;;1742895;28;20210;-79